createdAt,value
2023-07-04T00:00:33.951Z,21.22
2023-07-04T00:01:30.894Z,21.34
2023-07-04T00:02:27.920Z,21.28
2023-07-04T00:03:25.658Z,21.19
2023-07-04T00:04:23.272Z,21.09
2023-07-04T00:05:20.107Z,20.99
2023-07-04T00:06:18.672Z,20.90
2023-07-04T00:07:15.584Z,21.08
2023-07-04T00:08:12.564Z,21.01
2023-07-04T00:09:09.402Z,21.09
2023-07-04T00:10:08.158Z,21.14
2023-07-04T00:11:07.686Z,21.20
2023-07-04T00:12:04.928Z,20.93
2023-07-04T00:13:01.791Z,21.11
2023-07-04T00:13:58.830Z,21.09
2023-07-04T00:14:55.764Z,21.29
2023-07-04T00:15:54.290Z,21.32
2023-07-04T00:16:51.236Z,21.33
2023-07-04T00:17:48.126Z,21.23
2023-07-04T00:18:45.719Z,21.11
2023-07-04T00:19:42.612Z,21.17
2023-07-04T00:20:39.530Z,21.19
2023-07-04T00:21:40.100Z,21.07
2023-07-04T00:22:41.366Z,20.94
2023-07-04T00:23:38.216Z,21.30
2023-07-04T00:24:35.007Z,21.19
2023-07-04T00:25:35.832Z,21.18
2023-07-04T00:26:32.655Z,21.11
2023-07-04T00:27:29.616Z,21.05
2023-07-04T00:28:27.204Z,21.16
2023-07-04T00:29:24.912Z,21.13
2023-07-04T00:30:21.779Z,21.09
2023-07-04T00:31:24.005Z,21.09
2023-07-04T00:32:21.085Z,20.66
2023-07-04T00:33:17.989Z,21.06
2023-07-04T00:34:15.602Z,20.95
2023-07-04T00:35:12.865Z,21.04
2023-07-04T00:36:13.903Z,20.93
2023-07-04T00:37:11.152Z,20.68
2023-07-04T00:38:08.269Z,20.84
2023-07-04T00:39:05.556Z,20.82
2023-07-04T00:40:02.574Z,20.84
2023-07-04T00:41:04.463Z,20.78
2023-07-04T00:42:02.243Z,20.81
2023-07-04T00:43:04.649Z,20.87
2023-07-04T00:44:13.249Z,20.81
2023-07-04T00:45:20.572Z,20.97
2023-07-04T00:46:17.554Z,20.89
2023-07-04T00:47:23.062Z,21.06
2023-07-04T00:48:19.913Z,20.98
2023-07-04T00:49:28.259Z,20.87
2023-07-04T00:50:32.280Z,20.86
2023-07-04T00:51:32.822Z,20.96
2023-07-04T00:52:35.775Z,20.95
2023-07-04T00:53:36.343Z,21.11
2023-07-04T00:54:38.340Z,21.05
2023-07-04T00:55:39.057Z,20.73
2023-07-04T00:56:36.009Z,20.98
2023-07-04T00:57:38.271Z,21.00
2023-07-04T00:58:36.285Z,20.38
2023-07-04T00:59:45.170Z,20.74
2023-07-04T01:00:44.994Z,20.74
2023-07-04T01:01:43.815Z,20.71
2023-07-04T01:02:41.262Z,20.38
2023-07-04T01:03:38.556Z,20.70
2023-07-04T01:04:35.788Z,20.63
2023-07-04T01:05:42.082Z,20.63
2023-07-04T01:07:11.648Z,20.68
2023-07-04T01:08:20.952Z,20.48
2023-07-04T01:09:20.341Z,20.80
2023-07-04T01:10:30.529Z,20.95
2023-07-04T01:11:35.808Z,20.99
2023-07-04T01:12:32.995Z,20.93
2023-07-04T01:13:39.690Z,21.04
2023-07-04T01:14:36.719Z,21.02
2023-07-04T01:15:33.520Z,21.01
2023-07-04T01:16:32.471Z,21.07
2023-07-04T01:17:31.129Z,20.95
2023-07-04T01:18:28.814Z,20.87
2023-07-04T01:19:32.221Z,20.70
2023-07-04T01:20:29.869Z,20.77
2023-07-04T01:21:29.204Z,20.73
2023-07-04T01:22:26.111Z,20.92
2023-07-04T01:23:43.658Z,20.72
2023-07-04T01:25:04.237Z,20.82
2023-07-04T01:26:23.009Z,20.86
2023-07-04T01:27:24.339Z,20.51
2023-07-04T01:28:22.414Z,20.60
2023-07-04T01:29:19.892Z,20.56
2023-07-04T01:30:20.085Z,20.28
2023-07-04T01:31:17.007Z,20.39
2023-07-04T01:32:14.794Z,20.34
2023-07-04T01:33:14.642Z,20.22
2023-07-04T01:34:14.208Z,20.32
2023-07-04T01:35:14.826Z,20.14
2023-07-04T01:36:12.758Z,20.00
2023-07-04T01:37:09.573Z,20.36
2023-07-04T01:38:07.436Z,20.40
2023-07-04T01:39:06.704Z,20.29
2023-07-04T01:40:08.251Z,20.38
2023-07-04T01:41:04.980Z,20.29
2023-07-04T01:42:07.635Z,20.44
2023-07-04T01:43:07.106Z,20.20
2023-07-04T01:44:08.803Z,20.50
2023-07-04T01:45:08.742Z,20.40
2023-07-04T01:46:06.164Z,20.53
2023-07-04T01:47:03.838Z,20.48
2023-07-04T01:48:01.144Z,20.44
2023-07-04T01:48:58.862Z,20.48
2023-07-04T01:49:56.354Z,20.44
2023-07-04T01:50:53.634Z,20.31
2023-07-04T01:51:50.780Z,20.16
2023-07-04T01:52:47.640Z,20.46
2023-07-04T01:53:44.497Z,20.62
2023-07-04T01:54:41.286Z,20.36
2023-07-04T01:55:38.085Z,20.72
2023-07-04T01:56:36.918Z,20.79
2023-07-04T01:57:33.934Z,20.41
2023-07-04T01:58:30.724Z,20.59
2023-07-04T01:59:27.585Z,20.50
2023-07-04T02:00:24.564Z,20.41
2023-07-04T02:01:21.957Z,20.07
2023-07-04T02:02:19.757Z,20.19
2023-07-04T02:03:17.075Z,20.30
2023-07-04T02:04:14.043Z,20.26
2023-07-04T02:05:10.873Z,20.09
2023-07-04T02:06:08.402Z,20.28
2023-07-04T02:07:05.472Z,20.34
2023-07-04T02:08:02.267Z,20.14
2023-07-04T02:08:59.098Z,20.30
2023-07-04T02:09:55.883Z,20.30
2023-07-04T02:10:52.914Z,20.37
2023-07-04T02:11:49.969Z,20.32
2023-07-04T02:12:46.769Z,20.32
2023-07-04T02:13:43.660Z,20.21
2023-07-04T02:14:40.536Z,20.23
2023-07-04T02:15:37.381Z,20.19
2023-07-04T02:16:34.265Z,20.17
2023-07-04T02:17:31.217Z,20.25
2023-07-04T02:18:28.466Z,20.22
2023-07-04T02:19:25.389Z,20.10
2023-07-04T02:20:22.260Z,20.18
2023-07-04T02:21:19.938Z,20.32
2023-07-04T02:22:16.790Z,20.46
2023-07-04T02:23:13.721Z,20.43
2023-07-04T02:24:10.612Z,20.59
2023-07-04T02:25:07.655Z,20.39
2023-07-04T02:26:04.398Z,20.21
2023-07-04T02:27:01.258Z,20.06
2023-07-04T02:28:16.748Z,20.14
2023-07-04T02:29:14.159Z,20.23
2023-07-04T02:30:11.661Z,20.13
2023-07-04T02:31:08.617Z,20.26
2023-07-04T02:32:05.823Z,20.20
2023-07-04T02:33:04.340Z,20.24
2023-07-04T02:34:01.228Z,20.20
2023-07-04T02:34:57.979Z,20.13
2023-07-04T02:35:55.150Z,20.10
2023-07-04T02:36:51.944Z,19.98
2023-07-04T02:37:48.748Z,20.01
2023-07-04T02:38:45.712Z,20.26
2023-07-04T02:39:42.448Z,20.43
2023-07-04T02:40:45.133Z,20.50
2023-07-04T02:41:42.076Z,20.58
2023-07-04T02:42:38.977Z,20.50
2023-07-04T02:43:37.150Z,20.30
2023-07-04T02:44:34.362Z,20.24
2023-07-04T02:45:31.724Z,20.28
2023-07-04T02:46:28.677Z,20.13
2023-07-04T02:47:27.711Z,20.14
2023-07-04T02:48:26.589Z,19.90
2023-07-04T02:49:23.392Z,19.98
2023-07-04T02:50:20.194Z,20.02
2023-07-04T02:51:17.110Z,20.21
2023-07-04T02:52:13.991Z,20.01
2023-07-04T02:53:10.918Z,20.28
2023-07-04T02:54:07.836Z,20.20
2023-07-04T02:55:05.032Z,19.80
2023-07-04T02:56:01.927Z,20.12
2023-07-04T02:57:00.365Z,20.12
2023-07-04T02:57:57.996Z,20.06
2023-07-04T02:58:55.243Z,20.18
2023-07-04T02:59:52.641Z,20.11
2023-07-04T03:00:51.029Z,20.36
2023-07-04T03:01:48.890Z,20.24
2023-07-04T03:02:45.964Z,20.13
2023-07-04T03:03:42.968Z,20.06
2023-07-04T03:04:39.986Z,19.83
2023-07-04T03:05:37.783Z,20.15
2023-07-04T03:06:34.615Z,20.36
2023-07-04T03:07:31.434Z,20.39
2023-07-04T03:08:28.215Z,20.40
2023-07-04T03:09:26.046Z,20.28
2023-07-04T03:10:22.865Z,20.34
2023-07-04T03:11:19.671Z,20.30
2023-07-04T03:12:16.427Z,19.65
2023-07-04T03:13:13.626Z,20.10
2023-07-04T03:14:10.490Z,19.63
2023-07-04T03:15:08.661Z,19.94
2023-07-04T03:16:05.892Z,20.10
2023-07-04T03:17:02.944Z,20.17
2023-07-04T03:17:59.849Z,19.99
2023-07-04T03:18:56.731Z,20.17
2023-07-04T03:19:53.530Z,20.22
2023-07-04T03:20:50.513Z,20.04
2023-07-04T03:21:47.575Z,20.00
2023-07-04T03:22:45.460Z,19.90
2023-07-04T03:23:42.211Z,19.68
2023-07-04T03:24:39.073Z,19.63
2023-07-04T03:25:35.964Z,19.86
2023-07-04T03:26:35.646Z,19.90
2023-07-04T03:27:34.043Z,20.00
2023-07-04T03:28:30.932Z,19.93
2023-07-04T03:29:27.906Z,19.82
2023-07-04T03:30:24.771Z,19.97
2023-07-04T03:31:21.821Z,19.84
2023-07-04T03:32:18.739Z,19.93
2023-07-04T03:33:15.699Z,19.85
2023-07-04T03:34:12.541Z,19.36
2023-07-04T03:35:09.784Z,19.68
2023-07-04T03:36:07.413Z,19.59
2023-07-04T03:37:04.553Z,19.60
2023-07-04T03:38:01.324Z,19.33
2023-07-04T03:38:58.134Z,19.50
2023-07-04T03:39:55.181Z,19.45
2023-07-04T03:40:52.289Z,19.75
2023-07-04T03:41:49.405Z,19.62
2023-07-04T03:42:46.477Z,19.67
2023-07-04T03:43:43.264Z,19.77
2023-07-04T03:44:40.134Z,19.95
2023-07-04T03:45:37.008Z,19.90
2023-07-04T03:46:34.036Z,19.75
2023-07-04T03:47:31.070Z,19.88
2023-07-04T03:48:28.146Z,20.03
2023-07-04T03:49:25.232Z,20.06
2023-07-04T03:50:22.029Z,19.87
2023-07-04T03:51:19.001Z,19.72
2023-07-04T03:52:16.601Z,19.54
2023-07-04T03:53:13.423Z,19.88
2023-07-04T03:54:10.225Z,20.04
2023-07-04T03:55:08.061Z,19.73
2023-07-04T03:56:06.582Z,19.93
2023-07-04T03:57:03.657Z,20.10
2023-07-04T03:58:00.602Z,19.13
2023-07-04T03:58:57.682Z,19.72
2023-07-04T03:59:54.508Z,19.67
2023-07-04T04:00:52.367Z,19.83
2023-07-04T04:01:49.379Z,19.89
2023-07-04T04:02:46.339Z,19.76
2023-07-04T04:03:43.407Z,19.59
2023-07-04T04:04:41.284Z,19.77
2023-07-04T04:05:38.279Z,19.70
2023-07-04T04:06:35.170Z,19.64
2023-07-04T04:07:32.016Z,19.83
2023-07-04T04:08:28.799Z,19.54
2023-07-04T04:09:25.688Z,19.38
2023-07-04T04:10:22.602Z,19.43
2023-07-04T04:11:19.421Z,18.91
2023-07-04T04:12:16.309Z,19.23
2023-07-04T04:13:13.162Z,19.48
2023-07-04T04:14:11.112Z,19.33
2023-07-04T04:15:08.649Z,19.61
2023-07-04T04:16:06.169Z,19.62
2023-07-04T04:17:04.537Z,19.52
2023-07-04T04:18:03.850Z,19.67
2023-07-04T04:19:00.854Z,19.73
2023-07-04T04:19:57.644Z,19.56
2023-07-04T04:20:54.628Z,19.60
2023-07-04T04:21:51.589Z,19.63
2023-07-04T04:22:49.470Z,19.57
2023-07-04T04:23:46.249Z,19.74
2023-07-04T04:24:43.071Z,19.82
2023-07-04T04:25:40.115Z,19.75
2023-07-04T04:26:39.479Z,19.88
2023-07-04T04:27:37.174Z,19.98
2023-07-04T04:28:34.019Z,19.83
2023-07-04T04:29:30.751Z,19.87
2023-07-04T04:30:27.714Z,19.82
2023-07-04T04:31:24.580Z,19.76
2023-07-04T04:32:23.491Z,19.82
2023-07-04T04:33:21.188Z,19.75
2023-07-04T04:34:18.452Z,19.76
2023-07-04T04:35:15.581Z,19.80
2023-07-04T04:36:12.412Z,19.72
2023-07-04T04:37:09.244Z,19.65
2023-07-04T04:38:06.052Z,19.95
2023-07-04T04:39:03.719Z,19.55
2023-07-04T04:40:01.268Z,19.74
2023-07-04T04:41:06.163Z,19.97
2023-07-04T04:42:03.090Z,19.94
2023-07-04T04:42:59.974Z,20.16
2023-07-04T04:43:58.737Z,20.14
2023-07-04T04:44:55.904Z,20.24
2023-07-04T04:45:52.917Z,19.97
2023-07-04T04:46:51.168Z,20.08
2023-07-04T04:47:54.401Z,20.27
2023-07-04T04:48:51.990Z,20.21
2023-07-04T04:49:48.816Z,20.44
2023-07-04T04:50:47.486Z,20.50
2023-07-04T04:51:45.516Z,20.43
2023-07-04T04:52:45.963Z,20.52
2023-07-04T04:53:45.729Z,20.55
2023-07-04T04:54:42.528Z,20.66
2023-07-04T04:55:39.321Z,20.65
2023-07-04T04:56:36.114Z,20.54
2023-07-04T04:57:32.973Z,20.56
2023-07-04T04:58:29.851Z,20.40
2023-07-04T04:59:26.682Z,20.70
2023-07-04T05:00:23.539Z,20.72
2023-07-04T05:01:24.495Z,20.45
2023-07-04T05:02:21.494Z,20.61
2023-07-04T05:03:18.309Z,20.74
2023-07-04T05:04:15.223Z,20.72
2023-07-04T05:05:13.271Z,20.81
2023-07-04T05:06:10.838Z,20.65
2023-07-04T05:07:07.576Z,20.83
2023-07-04T05:08:04.749Z,20.98
2023-07-04T05:09:01.658Z,21.04
2023-07-04T05:10:02.099Z,21.10
2023-07-04T05:11:01.591Z,21.09
2023-07-04T05:11:58.411Z,21.07
2023-07-04T05:12:55.250Z,21.21
2023-07-04T05:13:52.372Z,21.23
2023-07-04T05:14:49.400Z,21.41
2023-07-04T05:15:46.320Z,21.54
2023-07-04T05:16:43.154Z,21.25
2023-07-04T05:17:40.377Z,21.29
2023-07-04T05:18:38.874Z,21.46
2023-07-04T05:19:36.145Z,21.60
2023-07-04T05:20:33.043Z,21.61
2023-07-04T05:21:29.866Z,21.80
2023-07-04T05:22:26.684Z,21.59
2023-07-04T05:23:23.572Z,21.49
2023-07-04T05:24:20.439Z,21.90
2023-07-04T05:25:17.344Z,22.05
2023-07-04T05:26:24.137Z,22.09
2023-07-04T05:27:20.913Z,21.60
2023-07-04T05:28:17.739Z,21.74
2023-07-04T05:29:14.569Z,21.97
2023-07-04T05:30:12.608Z,22.01
2023-07-04T05:31:15.169Z,22.29
2023-07-04T05:32:13.269Z,22.40
2023-07-04T05:33:10.141Z,22.38
2023-07-04T05:34:06.949Z,22.45
2023-07-04T05:35:03.901Z,22.53
2023-07-04T05:36:03.728Z,22.45
2023-07-04T05:37:03.712Z,22.48
2023-07-04T05:38:00.645Z,22.67
2023-07-04T05:39:04.033Z,22.81
2023-07-04T05:40:00.849Z,22.75
2023-07-04T05:40:57.623Z,23.11
2023-07-04T05:41:55.093Z,22.91
2023-07-04T05:42:51.932Z,22.37
2023-07-04T05:43:50.297Z,22.64
2023-07-04T05:44:47.152Z,22.76
2023-07-04T05:45:51.847Z,22.81
2023-07-04T05:46:48.915Z,22.77
2023-07-04T05:47:45.755Z,23.00
2023-07-04T05:48:43.879Z,22.75
2023-07-04T05:49:40.810Z,22.81
2023-07-04T05:50:37.641Z,22.95
2023-07-04T05:51:34.428Z,23.40
2023-07-04T05:52:32.896Z,23.26
2023-07-04T05:53:33.196Z,23.13
2023-07-04T05:54:29.920Z,23.36
2023-07-04T05:55:26.676Z,22.89
2023-07-04T05:56:26.867Z,22.95
2023-07-04T05:57:23.581Z,23.54
2023-07-04T05:58:20.864Z,23.88
2023-07-04T05:59:17.680Z,23.69
2023-07-04T06:00:14.995Z,24.03
2023-07-04T06:01:13.691Z,24.17
2023-07-04T06:02:10.418Z,24.04
2023-07-04T06:03:07.342Z,24.14
2023-07-04T06:04:06.300Z,24.13
2023-07-04T06:05:03.314Z,24.04
2023-07-04T06:06:01.473Z,23.69
2023-07-04T06:06:58.214Z,23.78
2023-07-04T06:07:55.037Z,24.29
2023-07-04T06:08:54.029Z,24.50
2023-07-04T06:09:50.844Z,24.59
2023-07-04T06:11:06.619Z,24.25
2023-07-04T06:12:03.704Z,23.99
2023-07-04T06:13:00.530Z,23.61
2023-07-04T06:13:58.219Z,23.75
2023-07-04T06:14:55.013Z,23.99
2023-07-04T06:15:51.858Z,24.25
2023-07-04T06:16:48.953Z,24.28
2023-07-04T06:17:45.964Z,24.27
2023-07-04T06:18:44.602Z,24.05
2023-07-04T06:19:41.475Z,23.93
2023-07-04T06:20:38.202Z,24.18
2023-07-04T06:21:44.121Z,23.86
2023-07-04T06:22:41.540Z,24.09
2023-07-04T06:23:39.580Z,23.65
2023-07-04T06:24:37.617Z,24.10
2023-07-04T06:25:35.072Z,24.07
2023-07-04T06:26:34.070Z,24.19
2023-07-04T06:27:31.817Z,24.01
2023-07-04T06:28:28.646Z,24.29
2023-07-04T06:29:25.406Z,24.26
2023-07-04T06:30:22.179Z,24.40
2023-07-04T06:31:19.173Z,24.59
2023-07-04T06:32:16.037Z,24.07
2023-07-04T06:33:12.834Z,24.37
2023-07-04T06:34:09.872Z,24.38
2023-07-04T06:35:07.119Z,24.36
2023-07-04T06:36:04.965Z,24.35
2023-07-04T06:37:01.712Z,24.34
2023-07-04T06:37:58.496Z,24.36
2023-07-04T06:38:55.343Z,24.29
2023-07-04T06:39:52.225Z,24.57
2023-07-04T06:40:59.675Z,24.27
2023-07-04T06:41:56.461Z,24.69
2023-07-04T06:42:53.247Z,24.46
2023-07-04T06:43:50.063Z,24.31
2023-07-04T06:44:47.163Z,24.55
2023-07-04T06:45:44.350Z,24.71
2023-07-04T06:46:42.393Z,24.72
2023-07-04T06:47:39.275Z,24.77
2023-07-04T06:48:36.070Z,24.93
2023-07-04T06:49:32.946Z,24.87
2023-07-04T06:50:30.402Z,24.67
2023-07-04T06:51:31.661Z,24.15
2023-07-04T06:52:28.762Z,24.49
2023-07-04T06:53:26.511Z,24.37
2023-07-04T06:54:24.351Z,24.40
2023-07-04T06:55:22.283Z,24.45
2023-07-04T06:56:21.997Z,24.75
2023-07-04T06:57:22.172Z,24.86
2023-07-04T06:58:19.011Z,24.98
2023-07-04T06:59:15.792Z,25.22
2023-07-04T07:00:13.023Z,24.90
2023-07-04T07:01:11.979Z,24.45
2023-07-04T07:02:09.135Z,24.71
2023-07-04T07:03:06.493Z,24.98
2023-07-04T07:04:04.917Z,25.13
2023-07-04T07:05:02.534Z,25.03
2023-07-04T07:06:03.860Z,25.39
2023-07-04T07:07:01.005Z,25.09
2023-07-04T07:07:57.732Z,25.28
2023-07-04T07:08:54.698Z,25.58
2023-07-04T07:09:51.620Z,25.44
2023-07-04T07:10:57.362Z,25.31
2023-07-04T07:11:54.277Z,25.00
2023-07-04T07:12:51.141Z,24.94
2023-07-04T07:13:48.408Z,24.92
2023-07-04T07:14:47.891Z,25.05
2023-07-04T07:15:44.670Z,25.06
2023-07-04T07:16:41.421Z,25.27
2023-07-04T07:17:38.755Z,25.30
2023-07-04T07:18:37.047Z,25.20
2023-07-04T07:19:34.866Z,25.21
2023-07-04T07:20:31.743Z,25.29
2023-07-04T07:21:28.653Z,25.35
2023-07-04T07:22:25.523Z,25.69
2023-07-04T07:23:23.420Z,25.90
2023-07-04T07:24:20.169Z,25.62
2023-07-04T07:25:17.034Z,25.67
2023-07-04T07:26:20.267Z,25.50
2023-07-04T07:27:20.442Z,25.61
2023-07-04T07:28:18.156Z,26.12
2023-07-04T07:29:15.103Z,26.26
2023-07-04T07:30:12.493Z,26.26
2023-07-04T07:31:19.843Z,26.15
2023-07-04T07:32:16.714Z,26.38
2023-07-04T07:33:13.484Z,26.57
2023-07-04T07:34:10.507Z,26.20
2023-07-04T07:35:07.711Z,26.24
2023-07-04T07:36:11.748Z,26.45
2023-07-04T07:37:10.098Z,26.47
2023-07-04T07:38:06.869Z,26.46
2023-07-04T07:39:05.360Z,26.36
2023-07-04T07:40:02.273Z,26.50
2023-07-04T07:40:59.154Z,26.65
2023-07-04T07:41:56.128Z,25.92
2023-07-04T07:42:53.179Z,26.22
2023-07-04T07:43:50.023Z,26.43
2023-07-04T07:44:46.946Z,26.19
2023-07-04T07:45:44.470Z,26.20
2023-07-04T07:46:42.650Z,25.50
2023-07-04T07:47:39.589Z,26.01
2023-07-04T07:48:37.205Z,26.18
2023-07-04T07:49:34.236Z,26.08
2023-07-04T07:50:31.125Z,26.64
2023-07-04T07:51:29.020Z,26.58
2023-07-04T07:52:26.199Z,26.58
2023-07-04T07:53:23.039Z,26.68
2023-07-04T07:54:20.234Z,26.85
2023-07-04T07:55:17.069Z,26.84
2023-07-04T07:56:16.193Z,26.96
2023-07-04T07:57:12.951Z,27.04
2023-07-04T07:58:10.225Z,27.22
2023-07-04T07:59:07.527Z,27.04
2023-07-04T08:00:04.637Z,27.01
2023-07-04T08:01:10.316Z,27.16
2023-07-04T08:02:13.391Z,27.12
2023-07-04T08:03:10.322Z,27.15
2023-07-04T08:04:07.727Z,27.40
2023-07-04T08:05:04.932Z,27.56
2023-07-04T08:06:01.784Z,27.63
2023-07-04T08:06:58.609Z,27.34
2023-07-04T08:07:55.447Z,27.22
2023-07-04T08:08:53.866Z,27.27
2023-07-04T08:09:50.601Z,27.43
2023-07-04T08:10:47.465Z,27.42
2023-07-04T08:11:50.705Z,27.18
2023-07-04T08:12:47.550Z,26.89
2023-07-04T08:13:45.307Z,26.99
2023-07-04T08:14:42.163Z,27.10
2023-07-04T08:15:39.163Z,27.24
2023-07-04T08:16:44.454Z,27.64
2023-07-04T08:17:41.530Z,27.64
2023-07-04T08:18:38.345Z,27.09
2023-07-04T08:19:35.211Z,27.42
2023-07-04T08:20:32.241Z,27.66
2023-07-04T08:21:29.428Z,27.90
2023-07-04T08:22:26.229Z,27.94
2023-07-04T08:23:23.001Z,28.06
2023-07-04T08:24:19.760Z,28.14
2023-07-04T08:25:16.626Z,27.88
2023-07-04T08:26:22.462Z,28.10
2023-07-04T08:27:19.298Z,28.24
2023-07-04T08:28:16.835Z,28.40
2023-07-04T08:29:15.225Z,28.23
2023-07-04T08:30:12.190Z,28.43
2023-07-04T08:31:10.937Z,28.66
2023-07-04T08:32:08.893Z,28.66
2023-07-04T08:33:05.874Z,28.45
2023-07-04T08:34:03.491Z,28.59
2023-07-04T08:35:00.461Z,28.46
2023-07-04T08:36:09.693Z,28.81
2023-07-04T08:37:07.874Z,28.09
2023-07-04T08:38:04.748Z,27.98
2023-07-04T08:39:01.672Z,28.19
2023-07-04T08:39:58.606Z,28.05
2023-07-04T08:40:56.394Z,27.99
2023-07-04T08:42:03.799Z,28.27
2023-07-04T08:43:06.956Z,28.19
2023-07-04T08:44:29.483Z,28.52
2023-07-04T08:45:30.396Z,28.63
2023-07-04T08:46:39.623Z,28.97
2023-07-04T08:47:40.452Z,29.40
2023-07-04T08:48:40.446Z,29.49
2023-07-04T08:50:01.427Z,29.48
2023-07-04T08:51:01.303Z,29.84
2023-07-04T08:52:24.247Z,29.78
2023-07-04T08:53:24.071Z,29.37
2023-07-04T08:54:21.567Z,29.25
2023-07-04T08:55:19.162Z,29.42
2023-07-04T08:56:32.823Z,29.62
2023-07-04T08:57:54.224Z,29.42
2023-07-04T08:59:23.072Z,29.70
2023-07-04T09:00:29.385Z,29.66
2023-07-04T09:02:01.286Z,29.40
2023-07-04T09:03:16.798Z,29.38
2023-07-04T09:04:37.130Z,29.19
2023-07-04T09:06:16.237Z,29.26
2023-07-04T09:07:26.501Z,28.71
2023-07-04T09:08:53.027Z,28.70
2023-07-04T09:10:09.513Z,29.02
2023-07-04T09:11:13.002Z,29.18
2023-07-04T09:12:10.798Z,29.07
2023-07-04T09:13:13.209Z,29.17
2023-07-04T09:14:20.366Z,29.43
2023-07-04T09:15:37.509Z,28.80
2023-07-04T09:16:39.502Z,28.73
2023-07-04T09:17:47.611Z,28.69
2023-07-04T09:18:57.675Z,28.87
2023-07-04T09:19:56.755Z,29.08
2023-07-04T09:21:04.519Z,29.17
2023-07-04T09:22:07.790Z,29.06
2023-07-04T09:23:16.283Z,28.21
2023-07-04T09:24:13.744Z,28.87
2023-07-04T09:25:11.370Z,28.60
2023-07-04T09:26:13.034Z,28.56
2023-07-04T09:27:16.922Z,28.29
2023-07-04T09:28:14.332Z,28.51
2023-07-04T09:29:13.327Z,28.56
2023-07-04T09:30:12.648Z,28.47
2023-07-04T09:31:18.902Z,29.09
2023-07-04T09:32:17.387Z,29.18
2023-07-04T09:33:15.782Z,29.17
2023-07-04T09:34:33.220Z,29.22
2023-07-04T09:35:31.838Z,29.02
2023-07-04T09:36:34.374Z,29.20
2023-07-04T09:37:31.303Z,29.48
2023-07-04T09:38:52.903Z,29.57
2023-07-04T09:39:56.122Z,29.52
2023-07-04T09:40:58.579Z,29.48
2023-07-04T09:42:18.343Z,29.49
2023-07-04T09:43:33.495Z,29.38
2023-07-04T09:44:37.450Z,29.23
2023-07-04T09:45:34.757Z,29.22
2023-07-04T09:46:33.247Z,29.03
2023-07-04T09:47:30.789Z,29.20
2023-07-04T09:48:27.633Z,29.36
2023-07-04T09:49:31.004Z,29.28
2023-07-04T09:50:30.869Z,29.37
2023-07-04T09:51:29.383Z,29.44
2023-07-04T09:52:27.613Z,29.32
2023-07-04T09:53:24.597Z,29.20
2023-07-04T09:54:21.407Z,29.10
2023-07-04T09:55:28.280Z,29.20
2023-07-04T09:56:27.327Z,28.93
2023-07-04T09:57:28.300Z,29.07
2023-07-04T09:58:27.274Z,29.40
2023-07-04T09:59:29.369Z,29.35
2023-07-04T10:00:27.956Z,29.24
2023-07-04T10:01:24.994Z,29.45
2023-07-04T10:02:24.668Z,29.08
2023-07-04T10:03:21.749Z,29.27
2023-07-04T10:04:46.796Z,29.25
2023-07-04T10:05:49.424Z,29.39
2023-07-04T10:06:47.553Z,29.42
2023-07-04T10:08:03.852Z,29.32
2023-07-04T10:09:18.667Z,29.36
2023-07-04T10:10:15.844Z,29.27
2023-07-04T10:11:12.746Z,28.94
2023-07-04T10:12:14.060Z,29.15
2023-07-04T10:13:14.169Z,29.54
2023-07-04T10:14:14.963Z,29.61
2023-07-04T10:15:25.506Z,29.50
2023-07-04T10:16:24.814Z,29.63
2023-07-04T10:17:34.907Z,29.28
2023-07-04T10:18:34.292Z,29.86
2023-07-04T10:19:40.134Z,30.00
2023-07-04T10:20:41.084Z,29.90
2023-07-04T10:21:52.093Z,29.84
2023-07-04T10:22:54.107Z,29.78
2023-07-04T10:23:51.243Z,29.97
2023-07-04T10:24:50.883Z,29.68
2023-07-04T10:25:49.458Z,29.57
2023-07-04T10:26:50.660Z,29.79
2023-07-04T10:27:53.876Z,29.50
2023-07-04T10:28:53.513Z,29.35
2023-07-04T10:29:56.496Z,29.68
2023-07-04T10:31:03.881Z,29.90
2023-07-04T10:32:07.686Z,29.83
2023-07-04T10:33:33.008Z,30.08
2023-07-04T10:34:33.157Z,29.98
2023-07-04T10:35:34.892Z,29.77
2023-07-04T10:36:37.798Z,29.74
2023-07-04T10:37:39.717Z,29.86
2023-07-04T10:38:46.169Z,30.02
2023-07-04T10:39:43.017Z,30.04
2023-07-04T10:40:41.178Z,30.00
2023-07-04T10:41:48.837Z,30.14
2023-07-04T10:42:54.406Z,29.73
2023-07-04T10:43:58.512Z,30.09
2023-07-04T10:44:59.192Z,30.03
2023-07-04T10:46:01.786Z,30.06
2023-07-04T10:47:06.642Z,29.89
2023-07-04T10:48:10.883Z,29.90
2023-07-04T10:49:16.580Z,29.58
2023-07-04T10:50:23.320Z,29.86
2023-07-04T10:51:30.902Z,29.78
2023-07-04T10:52:33.536Z,29.79
2023-07-04T10:53:30.780Z,29.92
2023-07-04T10:54:27.579Z,30.21
2023-07-04T10:55:38.639Z,30.35
2023-07-04T10:56:37.860Z,30.16
2023-07-04T10:57:46.801Z,30.19
2023-07-04T10:58:50.225Z,29.97
2023-07-04T10:59:55.474Z,29.99
2023-07-04T11:01:21.475Z,29.79
2023-07-04T11:02:37.551Z,29.79
2023-07-04T11:03:48.952Z,29.92
2023-07-04T11:04:47.786Z,29.80
2023-07-04T11:05:53.093Z,29.95
2023-07-04T11:07:05.091Z,30.19
2023-07-04T11:08:07.278Z,30.16
2023-07-04T11:09:06.134Z,30.14
2023-07-04T11:10:07.465Z,30.06
2023-07-04T11:11:14.205Z,29.67
2023-07-04T11:12:17.485Z,29.75
2023-07-04T11:13:18.274Z,30.07
2023-07-04T11:14:23.403Z,29.88
2023-07-04T11:15:34.582Z,29.93
2023-07-04T11:16:34.666Z,29.94
2023-07-04T11:17:35.978Z,29.92
2023-07-04T11:18:39.844Z,30.01
2023-07-04T11:19:57.064Z,30.10
2023-07-04T11:21:14.944Z,29.96
2023-07-04T11:22:16.036Z,29.92
2023-07-04T11:23:17.192Z,29.86
2023-07-04T11:24:20.844Z,30.16
2023-07-04T11:25:36.943Z,30.25
2023-07-04T11:27:03.633Z,30.15
2023-07-04T11:28:26.867Z,30.13
2023-07-04T11:29:25.072Z,30.06
2023-07-04T11:30:35.777Z,29.95
2023-07-04T11:31:33.056Z,30.12
2023-07-04T11:32:38.937Z,30.16
2023-07-04T11:33:41.797Z,30.31
2023-07-04T11:35:02.015Z,30.34
2023-07-04T11:36:04.582Z,30.26
2023-07-04T11:37:01.479Z,30.27
2023-07-04T11:38:12.005Z,30.28
2023-07-04T11:39:32.381Z,30.17
2023-07-04T11:40:41.887Z,30.33
2023-07-04T11:41:43.515Z,30.26
2023-07-04T11:42:48.582Z,30.22
2023-07-04T11:43:48.367Z,30.33
2023-07-04T11:45:08.666Z,30.22
2023-07-04T11:46:07.012Z,30.35
2023-07-04T11:47:08.281Z,30.16
2023-07-04T11:48:11.955Z,30.41
2023-07-04T11:49:21.869Z,30.45
2023-07-04T11:50:33.717Z,30.52
2023-07-04T11:51:31.010Z,30.46
2023-07-04T11:52:29.783Z,30.56
2023-07-04T11:53:40.476Z,30.48
2023-07-04T11:54:38.643Z,30.64
2023-07-04T11:55:36.758Z,30.49
2023-07-04T11:56:33.531Z,30.81
2023-07-04T11:58:00.948Z,30.85
2023-07-04T11:59:18.044Z,30.64
2023-07-04T12:00:29.990Z,30.60
2023-07-04T12:01:27.925Z,30.55
2023-07-04T12:02:34.474Z,30.65
2023-07-04T12:03:31.442Z,30.85
2023-07-04T12:04:34.423Z,30.87
2023-07-04T12:05:34.392Z,30.71
2023-07-04T12:07:18.706Z,30.66
2023-07-04T12:08:24.128Z,30.60
2023-07-04T12:09:39.052Z,30.23
2023-07-04T12:10:37.540Z,30.37
2023-07-04T12:11:46.982Z,30.22
2023-07-04T12:12:44.383Z,30.19
2023-07-04T12:13:43.431Z,30.35
2023-07-04T12:14:40.631Z,30.29
2023-07-04T12:15:41.014Z,30.41
2023-07-04T12:16:38.219Z,30.55
2023-07-04T12:17:46.890Z,30.22
2023-07-04T12:18:45.872Z,29.87
2023-07-04T12:19:43.489Z,30.61
2023-07-04T12:20:41.145Z,30.30
2023-07-04T12:21:43.924Z,30.46
2023-07-04T12:22:53.641Z,30.57
2023-07-04T12:23:50.872Z,30.48
2023-07-04T12:24:47.960Z,29.87
2023-07-04T12:25:48.326Z,30.33
2023-07-04T12:26:45.367Z,30.22
2023-07-04T12:27:43.261Z,30.26
2023-07-04T12:28:40.522Z,30.08
2023-07-04T12:30:59.364Z,30.37
2023-07-04T12:32:19.885Z,30.43
2023-07-04T12:33:26.951Z,30.17
2023-07-04T12:34:29.422Z,29.96
2023-07-04T12:35:39.341Z,29.96
2023-07-04T12:36:39.065Z,30.19
2023-07-04T12:37:45.125Z,30.18
2023-07-04T12:38:45.902Z,29.99
2023-07-04T12:39:46.799Z,29.92
2023-07-04T12:40:49.220Z,29.79
2023-07-04T12:41:46.069Z,30.09
2023-07-04T12:42:44.838Z,30.20
2023-07-04T12:44:42.900Z,30.09
2023-07-04T12:47:17.207Z,30.13
2023-07-04T12:50:06.281Z,30.65
2023-07-04T12:51:07.521Z,30.67
2023-07-04T12:52:04.991Z,30.59
2023-07-04T12:53:03.121Z,30.62
2023-07-04T12:54:04.286Z,30.61
2023-07-04T12:55:04.486Z,30.55
2023-07-04T12:56:02.786Z,30.37
2023-07-04T12:56:59.829Z,30.69
2023-07-04T12:57:58.446Z,30.73
2023-07-04T12:58:55.281Z,30.67
2023-07-04T12:59:52.259Z,30.69
2023-07-04T13:01:07.710Z,30.68
2023-07-04T13:02:16.105Z,30.46